Time;durP1;ratioP1;P1;durP2;ratioP2;P2;SDS_P1;SDS_P2;PMS_P1;PMS_P2;Temp;Humidity;BMP_temperature;BMP_pressure;BME280_temperature;BME280_humidity;BME280_pressure;Samples;Min_cycle;Max_cycle;Signal;HPM_P1;HPM_P2
2022/06/14 00:00:54;;;;;;;5.15;3.47;;;;;;;22.82;64.39;94614.91;5081033;28;20194;-86
2022/06/14 00:03:22;;;;;;;4.18;3.63;;;;;;;22.79;64.64;94614.31;5079168;28;20202;-80
2022/06/14 00:05:50;;;;;;;4.20;3.90;;;;;;;22.76;64.31;94608.75;5085639;28;20226;-79
2022/06/14 00:08:18;;;;;;;4.40;3.58;;;;;;;22.76;64.61;94608.75;5085969;28;20186;-78
2022/06/14 00:10:45;;;;;;;4.82;3.58;;;;;;;22.74;64.49;94606.34;5083611;28;20191;-78
2022/06/14 00:13:13;;;;;;;6.05;3.65;;;;;;;22.71;65.00;94617.22;5084378;28;20186;-79
2022/06/14 00:15:41;;;;;;;4.65;3.88;;;;;;;22.70;64.53;94618.19;5083561;28;20189;-79
2022/06/14 00:18:08;;;;;;;5.97;3.90;;;;;;;22.69;64.53;94618.41;5082035;28;20233;-83
2022/06/14 00:20:35;;;;;;;6.72;4.57;;;;;;;22.67;64.72;94612.63;5073081;28;20190;-87
2022/06/14 00:23:02;;;;;;;4.45;3.75;;;;;;;22.66;64.81;94608.41;5072496;28;20213;-86
2022/06/14 00:25:32;;;;;;;4.53;3.40;;;;;;;22.64;64.84;94613.06;5086301;28;20196;-79
2022/06/14 00:28:00;;;;;;;4.00;3.63;;;;;;;22.62;65.00;94612.47;5084524;28;20700;-83
2022/06/14 00:30:27;;;;;;;3.60;3.22;;;;;;;22.31;65.04;94574.25;5075479;28;20205;-82
2022/06/14 00:32:57;;;;;;;6.25;3.47;;;;;;;22.55;64.97;94609.94;5075342;28;20212;-82
2022/06/14 00:35:24;;;;;;;4.00;3.63;;;;;;;22.54;65.15;94610.94;5073599;28;20229;-79
2022/06/14 00:37:51;;;;;;;3.88;3.58;;;;;;;22.40;65.09;94589.38;5073920;28;20185;-79
2022/06/14 00:40:22;;;;;;;4.60;4.20;;;;;;;22.18;65.04;94554.31;5084558;28;20210;-80
2022/06/14 00:42:49;;;;;;;5.10;3.20;;;;;;;22.52;65.15;94607.75;5084356;28;20194;-78
2022/06/14 00:45:53;;;;;;;4.55;4.10;;;;;;;22.51;65.06;94619.19;5083915;28;20190;-79
2022/06/14 00:48:25;;;;;;;3.85;3.55;;;;;;;22.39;65.35;94598.22;5082733;28;20665;-80
2022/06/14 00:51:06;;;;;;;3.85;3.55;;;;;;;22.42;65.43;94617.84;5082997;28;20293;-87
2022/06/14 00:53:39;;;;;;;4.18;3.42;;;;;;;22.44;65.61;94624.44;5083098;28;20177;-79
2022/06/14 00:56:14;;;;;;;6.13;3.60;;;;;;;22.41;65.70;94617.06;5083738;28;20209;-82
2022/06/14 00:58:44;;;;;;;4.68;3.50;;;;;;;22.40;65.73;94623.25;5083988;28;20189;-79
2022/06/14 01:01:14;;;;;;;4.90;3.50;;;;;;;22.27;65.83;94600.72;5077991;28;20194;-80
2022/06/14 01:03:46;;;;;;;3.97;3.30;;;;;;;22.33;65.67;94613.94;5079061;28;20190;-80
2022/06/14 01:06:18;;;;;;;4.50;3.63;;;;;;;22.25;65.65;94609.75;5078459;28;20815;-79
2022/06/14 01:08:49;;;;;;;3.92;3.60;;;;;;;22.34;65.66;94624.13;5083526;28;20572;-77
2022/06/14 01:11:28;;;;;;;4.40;3.60;;;;;;;22.32;65.68;94626.13;5097530;28;20256;-79
2022/06/14 01:13:55;;;;;;;3.53;3.22;;;;;;;22.30;65.66;94620.34;5097334;28;20419;-81
2022/06/14 01:16:22;;;;;;;5.05;3.40;;;;;;;22.28;65.92;94622.38;5095917;28;20196;-80
2022/06/14 01:18:50;;;;;;;5.60;3.63;;;;;;;22.27;65.89;94621.56;5096791;28;20186;-83
2022/06/14 01:21:17;;;;;;;5.65;3.42;;;;;;;22.25;65.81;94615.78;5099592;28;20198;-81
2022/06/14 01:23:45;;;;;;;3.97;3.53;;;;;;;22.24;65.81;94613.38;5086965;28;20190;-85
2022/06/14 01:26:16;;;;;;;7.40;3.70;;;;;;;22.18;66.13;94601.19;5074482;28;20194;-86
2022/06/14 01:28:48;;;;;;;4.03;3.42;;;;;;;22.22;65.80;94607.56;5073768;28;20186;-79
2022/06/14 01:31:18;;;;;;;4.30;3.88;;;;;;;22.14;66.03;94598.19;5077832;28;20189;-79
2022/06/14 01:33:47;;;;;;;6.22;3.45;;;;;;;21.92;66.04;94557.88;5077683;28;20194;-80
2022/06/14 01:36:18;;;;;;;6.30;3.47;;;;;;;22.16;66.29;94601.41;5075384;28;20700;-81
2022/06/14 01:38:48;;;;;;;4.20;3.80;;;;;;;22.14;66.32;94598.19;5081474;28;20185;-80
2022/06/14 01:41:29;;;;;;;5.45;3.47;;;;;;;22.12;66.51;94600.25;5096894;28;20208;-85
2022/06/14 01:44:21;;;;;;;6.03;3.40;;;;;;;22.09;66.62;94600.63;5085009;28;20194;-79
2022/06/14 01:46:58;;;;;;;5.40;4.05;;;;;;;21.99;66.45;94595.88;5078582;28;20232;-80
2022/06/14 01:52:28;;;;;;;4.70;4.32;;;;;;;21.86;66.74;94582.94;5078030;28;20185;-79
2022/06/14 01:55:01;;;;;;;4.32;3.47;;;;;;;21.93;66.85;94596.69;5096678;28;20675;-80
2022/06/14 01:57:34;;;;;;;4.07;3.53;;;;;;;21.99;66.97;94616.72;5094593;28;20576;-83
2022/06/14 02:00:06;;;;;;;5.07;3.45;;;;;;;21.98;66.90;94609.91;5091621;28;20193;-78
2022/06/14 02:02:39;;;;;;;4.45;3.95;;;;;;;21.95;67.02;94618.13;5090483;28;20294;-85
2022/06/14 02:05:16;;;;;;;6.53;3.97;;;;;;;21.75;66.89;94591.41;5088737;28;20186;-87
2022/06/14 02:07:50;;;;;;;4.35;3.85;;;;;;;21.87;66.98;94607.19;5088166;28;20786;-83
2022/06/14 02:10:26;;;;;;;4.72;3.50;;;;;;;21.92;66.91;94617.75;5070152;28;20178;-82
2022/06/14 02:12:59;;;;;;;4.60;4.20;;;;;;;21.90;66.99;94617.19;5084568;28;20197;-82
2022/06/14 02:15:32;;;;;;;4.53;4.22;;;;;;;21.67;66.95;94586.44;5089977;28;20186;-81
2022/06/14 02:18:07;;;;;;;5.38;4.00;;;;;;;21.70;67.02;94594.66;5089973;28;20648;-81
2022/06/14 02:20:41;;;;;;;3.70;3.40;;;;;;;21.66;67.02;94598.66;5088554;28;20628;-85
2022/06/14 02:23:10;;;;;;;3.92;3.63;;;;;;;21.70;67.13;94617.28;5087820;28;20692;-81
2022/06/14 02:25:46;;;;;;;3.85;3.55;;;;;;;21.56;67.13;94600.16;5070401;28;20198;-87
2022/06/14 02:28:17;;;;;;;4.47;3.67;;;;;;;21.81;67.21;94641.88;5087934;28;20228;-82
2022/06/14 02:30:49;;;;;;;5.70;3.97;;;;;;;21.67;67.53;94626.28;5090099;28;20234;-82
2022/06/14 02:33:20;;;;;;;4.47;3.75;;;;;;;21.77;67.35;94652.69;5089846;28;20221;-79
2022/06/14 02:35:54;;;;;;;4.35;3.80;;;;;;;21.68;67.28;94643.53;5089920;28;20200;-80
2022/06/14 02:38:26;;;;;;;4.38;3.88;;;;;;;21.74;67.35;94647.09;5087743;28;20189;-83
2022/06/14 02:41:01;;;;;;;4.00;3.60;;;;;;;21.65;67.59;94643.13;5072287;28;20194;-84
2022/06/14 02:43:33;;;;;;;4.10;3.80;;;;;;;21.71;67.59;94647.50;5093872;28;20288;-87
2022/06/14 02:46:05;;;;;;;7.07;4.45;;;;;;;21.70;67.61;94657.13;5093943;28;20177;-83
2022/06/14 02:48:39;;;;;;;5.43;4.00;;;;;;;21.69;67.60;94655.53;5093479;28;20676;-84
2022/06/14 02:51:10;;;;;;;5.07;4.43;;;;;;;21.58;67.56;94645.75;5093802;28;20181;-82
2022/06/14 02:53:42;;;;;;;5.25;4.18;;;;;;;21.68;67.60;94660.94;5091438;28;20280;-81
2022/06/14 02:56:16;;;;;;;4.40;4.07;;;;;;;21.57;67.78;94640.75;5073752;28;20190;-84
2022/06/14 02:58:49;;;;;;;7.03;4.30;;;;;;;21.65;67.78;94656.94;5072644;28;20186;-85
2022/06/14 03:01:21;;;;;;;5.05;4.20;;;;;;;21.65;67.95;94659.56;5073390;28;20565;-83
2022/06/14 03:03:55;;;;;;;7.55;4.05;;;;;;;21.65;67.83;94659.56;5074377;28;20191;-82
2022/06/14 03:06:31;;;;;;;4.43;4.03;;;;;;;21.65;67.93;94656.94;5074723;28;20213;-82
2022/06/14 03:09:04;;;;;;;4.57;4.15;;;;;;;21.64;68.32;94663.16;5076694;28;20186;-83
2022/06/14 03:11:46;;;;;;;6.72;4.75;;;;;;;21.64;67.96;94668.38;5073992;28;20194;-79
2022/06/14 03:14:26;;;;;;;4.78;4.18;;;;;;;21.63;68.12;94666.78;5073580;28;20201;-85
2022/06/14 03:17:02;;;;;;;4.93;4.47;;;;;;;21.51;67.90;94651.00;5073103;28;20734;-85
2022/06/14 03:19:40;;;;;;;7.93;4.43;;;;;;;21.67;67.91;94678.34;5073877;28;20239;-79
2022/06/14 03:22:13;;;;;;;6.00;4.87;;;;;;;21.68;67.83;94677.38;5073379;28;20241;-83
2022/06/14 03:24:48;;;;;;;7.25;4.22;;;;;;;21.64;67.87;94664.97;5082143;28;20186;-83
2022/06/14 03:27:23;;;;;;;6.75;4.40;;;;;;;21.71;67.88;94674.34;5074754;28;20708;-84
2022/06/14 03:29:56;;;;;;;7.93;4.53;;;;;;;21.65;67.94;94661.34;5072865;28;20653;-82
2022/06/14 03:32:34;;;;;;;5.80;4.60;;;;;;;21.73;67.98;94668.94;5072266;28;20194;-84
2022/06/14 03:35:05;;;;;;;5.82;4.75;;;;;;;21.68;68.15;94653.16;5072882;28;20178;-84
2022/06/14 03:37:33;;;;;;;4.78;4.40;;;;;;;21.71;68.08;94666.53;5072027;28;20190;-85
2022/06/14 03:40:04;;;;;;;7.35;4.97;;;;;;;21.76;68.05;94669.31;5086409;28;20189;-83
2022/06/14 03:42:33;;;;;;;9.00;4.28;;;;;;;21.80;68.04;94667.09;5094560;28;20182;-84
2022/06/14 03:45:02;;;;;;;4.70;4.30;;;;;;;21.84;68.00;94668.25;5094804;28;20276;-86
2022/06/14 03:47:30;;;;;;;5.00;4.60;;;;;;;21.87;68.06;94670.47;5094284;28;20218;-88
2022/06/14 03:50:00;;;;;;;5.05;4.65;;;;;;;21.83;68.14;94663.28;5094709;28;20560;-85
2022/06/14 03:52:41;;;;;;;6.03;4.72;;;;;;;21.83;68.18;94658.88;5090256;28;20190;-83
2022/06/14 03:55:19;;;;;;;4.75;4.35;;;;;;;21.94;68.27;94670.44;5076918;28;20756;-83
2022/06/14 03:58:11;;;;;;;6.20;4.45;;;;;;;22.03;68.62;94679.59;5092280;28;20185;-84
2022/06/14 04:00:49;;;;;;;7.40;5.25;;;;;;;22.08;68.30;94678.97;5087479;28;20208;-82
2022/06/14 04:03:39;;;;;;;6.25;5.57;;;;;;;22.15;68.56;94671.94;5072645;28;20603;-81
2022/06/14 04:06:17;;;;;;;11.35;5.05;;;;;;;22.22;68.60;94677.91;5069943;28;20658;-78
2022/06/14 04:08:52;;;;;;;10.95;5.72;;;;;;;22.30;68.73;94677.66;5071847;28;20221;-78
2022/06/14 04:11:34;;;;;;;7.45;5.85;;;;;;;22.28;68.87;94667.47;5091717;28;20186;-80
2022/06/14 04:14:15;;;;;;;9.20;5.85;;;;;;;22.51;68.44;94685.13;5094878;28;20595;-78
2022/06/14 04:16:52;;;;;;;6.05;5.55;;;;;;;22.62;68.32;94678.44;5089512;28;20221;-77
2022/06/14 04:19:31;;;;;;;15.88;6.78;;;;;;;22.72;68.12;94677.97;5089419;28;20193;-79
2022/06/14 04:22:05;;;;;;;7.43;6.65;;;;;;;22.88;67.65;94694.88;5084295;28;20680;-80
2022/06/14 04:24:40;;;;;;;8.90;8.07;;;;;;;22.96;67.61;94690.22;5081171;28;20193;-77
2022/06/14 04:27:15;;;;;;;9.68;6.57;;;;;;;23.08;67.47;94689.53;5083287;28;20225;-77
2022/06/14 04:29:54;;;;;;;8.70;6.28;;;;;;;23.12;67.56;94680.25;5087139;28;20907;-77
2022/06/14 04:32:27;;;;;;;9.00;6.03;;;;;;;23.34;67.64;94696.28;5069635;28;20274;-80
2022/06/14 04:35:02;;;;;;;8.45;6.28;;;;;;;23.49;67.56;94707.19;5068835;28;20185;-79
2022/06/14 04:37:34;;;;;;;9.77;6.93;;;;;;;23.64;67.92;94704.19;5067945;28;20666;-78
2022/06/14 04:40:04;;;;;;;10.15;7.22;;;;;;;23.80;67.60;94708.88;5069369;28;20282;-76
2022/06/14 04:42:38;;;;;;;9.50;7.72;;;;;;;23.93;67.19;94695.66;5067750;28;20208;-76
2022/06/14 04:45:12;;;;;;;10.27;7.85;;;;;;;24.02;67.26;94689.09;5068091;28;20201;-79
2022/06/14 04:47:46;;;;;;;10.93;9.68;;;;;;;24.22;66.88;94704.53;5067997;28;20221;-79
2022/06/14 04:50:17;;;;;;;10.20;8.88;;;;;;;24.32;66.60;94683.06;5067993;28;20194;-77
2022/06/14 04:52:48;;;;;;;9.73;8.80;;;;;;;24.56;66.28;94701.44;5067513;28;20198;-78
2022/06/14 04:55:20;;;;;;;12.40;8.00;;;;;;;24.65;68.99;94705.31;5073228;28;20190;-81
2022/06/14 04:57:51;;;;;;;13.43;8.88;;;;;;;24.81;70.11;94702.06;5088106;28;20190;-78
2022/06/14 05:00:22;;;;;;;18.85;12.32;;;;;;;25.02;71.74;94711.19;5076742;28;20205;-77
2022/06/14 05:02:53;;;;;;;25.55;12.15;;;;;;;25.12;73.15;94703.59;5067751;28;20910;-77
2022/06/14 05:05:24;;;;;;;20.42;11.65;;;;;;;25.23;71.09;94707.25;5067719;28;20186;-77
2022/06/14 05:07:57;;;;;;;23.35;10.88;;;;;;;25.50;72.06;94724.06;5073001;28;20252;-77
2022/06/14 05:10:29;;;;;;;16.95;8.90;;;;;;;25.64;71.14;94724.59;5083384;28;20190;-76
2022/06/14 05:13:01;;;;;;;29.13;9.38;;;;;;;25.84;70.27;94734.75;5068108;28;20190;-77
2022/06/14 05:15:35;;;;;;;14.00;7.65;;;;;;;26.03;69.78;94728.28;5068072;28;20186;-75
2022/06/14 05:18:05;;;;;;;19.90;7.95;;;;;;;26.22;68.27;94728.13;5067546;28;20233;-75
2022/06/14 05:20:39;;;;;;;13.32;7.40;;;;;;;26.43;67.79;94735.34;5067903;28;20210;-74
2022/06/14 05:23:14;;;;;;;13.40;6.22;;;;;;;26.67;67.63;94719.50;5075171;28;20186;-76
2022/06/14 05:25:48;;;;;;;12.38;5.65;;;;;;;27.04;66.39;94735.59;5089862;28;20220;-76
2022/06/14 05:28:19;;;;;;;17.40;6.25;;;;;;;27.29;65.94;94747.53;5090521;28;20233;-75
2022/06/14 05:30:54;;;;;;;12.57;5.07;;;;;;;27.50;64.58;94750.22;5090229;28;20189;-76
2022/06/14 05:33:37;;;;;;;8.10;5.00;;;;;;;27.66;63.36;94750.41;5090348;28;20196;-76
2022/06/14 05:36:12;;;;;;;9.50;5.15;;;;;;;27.75;62.63;94759.50;5090068;28;20197;-76
2022/06/14 05:38:46;;;;;;;10.98;5.18;;;;;;;27.67;61.49;94744.91;5090055;28;20189;-76
2022/06/14 05:41:18;;;;;;;7.30;4.53;;;;;;;27.82;60.73;94773.28;5089831;28;20285;-76
2022/06/14 05:43:49;;;;;;;8.85;5.00;;;;;;;27.83;60.48;94761.72;5089905;28;20189;-76
2022/06/14 05:46:25;;;;;;;9.27;4.18;;;;;;;27.82;60.24;94759.34;5089915;28;20193;-75
2022/06/14 05:48:56;;;;;;;6.43;4.45;;;;;;;27.80;59.71;94770.06;5088012;28;20261;-76
2022/06/14 05:51:28;;;;;;;5.88;4.30;;;;;;;27.76;59.71;94768.97;5089505;28;20689;-76
2022/06/14 05:54:03;;;;;;;5.07;4.22;;;;;;;27.71;59.48;94776.75;5090048;28;20189;-77
2022/06/14 05:56:38;;;;;;;8.50;4.55;;;;;;;27.65;59.59;94770.66;5090226;28;20197;-78
2022/06/14 05:59:17;;;;;;;9.18;4.75;;;;;;;27.56;59.56;94768.69;5090322;28;20550;-77
2022/06/14 06:01:52;;;;;;;5.70;4.38;;;;;;;27.53;59.66;94772.56;5089493;28;20280;-78
2022/06/14 06:04:26;;;;;;;4.43;4.03;;;;;;;27.48;59.77;94775.13;5088900;28;20289;-80
2022/06/14 06:06:58;;;;;;;8.13;4.35;;;;;;;27.37;59.65;94762.88;5080026;28;20192;-78
2022/06/14 06:09:31;;;;;;;7.07;4.10;;;;;;;27.40;59.62;94786.84;5088975;28;20239;-78
2022/06/14 06:12:04;;;;;;;6.03;3.80;;;;;;;27.35;59.39;94775.47;5077508;28;20201;-78
2022/06/14 06:14:35;;;;;;;7.55;4.70;;;;;;;27.30;59.26;94770.94;5077759;28;20272;-78
2022/06/14 06:17:08;;;;;;;5.55;4.28;;;;;;;27.32;59.30;94784.63;5089636;28;20308;-80
2022/06/14 06:19:43;;;;;;;5.53;4.38;;;;;;;27.27;59.54;94780.09;5089454;28;20308;-78
2022/06/14 06:22:16;;;;;;;4.97;4.35;;;;;;;27.27;59.64;94789.78;5093001;28;20201;-77
2022/06/14 06:24:50;;;;;;;4.75;4.20;;;;;;;27.25;59.36;94787.41;5088876;28;20258;-78
2022/06/14 06:27:19;;;;;;;4.35;3.95;;;;;;;27.22;59.28;94789.72;5092271;28;20579;-76
2022/06/14 06:29:52;;;;;;;4.45;3.88;;;;;;;27.20;59.76;94791.78;5091831;28;20214;-77
2022/06/14 06:32:24;;;;;;;5.32;4.10;;;;;;;27.20;59.79;94791.78;5092494;28;20272;-78
2022/06/14 06:34:51;;;;;;;5.47;4.32;;;;;;;27.21;59.64;94790.75;5089744;28;20679;-79
2022/06/14 06:37:24;;;;;;;5.68;4.53;;;;;;;27.22;59.52;94784.47;5090019;28;20181;-80
2022/06/14 06:39:56;;;;;;;3.92;3.60;;;;;;;27.24;59.24;94785.00;5089529;28;20571;-79
2022/06/14 06:42:30;;;;;;;5.43;4.07;;;;;;;27.17;59.12;94768.66;5092475;28;20198;-78
2022/06/14 06:45:02;;;;;;;5.43;4.18;;;;;;;27.35;59.30;94796.47;5089678;28;20203;-78
2022/06/14 06:47:34;;;;;;;4.15;3.60;;;;;;;27.37;59.08;94789.94;5092522;28;20193;-80
2022/06/14 06:50:10;;;;;;;4.55;4.20;;;;;;;27.43;59.49;94790.84;5091152;28;20200;-75
2022/06/14 06:52:46;;;;;;;7.50;4.32;;;;;;;27.43;59.26;94790.84;5090226;28;20186;-76
2022/06/14 06:55:19;;;;;;;5.47;4.13;;;;;;;27.49;59.17;94795.91;5089535;28;20201;-78
2022/06/14 06:57:49;;;;;;;5.28;4.40;;;;;;;27.55;58.85;94802.06;5090918;28;20209;-78
2022/06/14 07:00:19;;;;;;;5.05;4.28;;;;;;;27.63;58.55;94806.06;5089358;28;20182;-78
2022/06/14 07:02:51;;;;;;;6.03;3.83;;;;;;;27.68;58.53;94804.34;5090795;28;20201;-78
2022/06/14 07:05:19;;;;;;;6.22;4.25;;;;;;;27.80;58.51;94812.13;5091281;28;20189;-76
2022/06/14 07:07:53;;;;;;;4.72;3.90;;;;;;;27.91;58.72;94805.19;5091118;28;20189;-76
2022/06/14 07:10:32;;;;;;;6.63;4.10;;;;;;;28.03;58.61;94805.88;5091627;28;20258;-78
2022/06/14 07:13:04;;;;;;;4.88;4.22;;;;;;;28.32;59.72;94817.00;5087857;28;20262;-77
2022/06/14 07:15:38;;;;;;;6.32;4.30;;;;;;;28.60;59.18;94817.88;5091231;28;20224;-79
2022/06/14 07:18:15;;;;;;;4.55;4.25;;;;;;;28.83;58.15;94812.31;5088058;28;20611;-75
2022/06/14 07:20:53;;;;;;;5.47;4.13;;;;;;;29.02;57.41;94817.25;5089224;28;20447;-78
2022/06/14 07:23:30;;;;;;;5.65;4.25;;;;;;;29.14;56.30;94813.41;5089904;28;20195;-78
2022/06/14 07:26:08;;;;;;;5.80;3.95;;;;;;;29.24;55.88;94815.34;5091176;28;20181;-78
2022/06/14 07:28:44;;;;;;;4.57;4.10;;;;;;;29.32;55.47;94814.91;5088349;28;20220;-79
2022/06/14 07:31:18;;;;;;;4.38;4.00;;;;;;;29.39;55.13;94822.56;5088237;28;20193;-77
2022/06/14 07:33:47;;;;;;;3.97;3.65;;;;;;;29.44;55.11;94815.50;5089142;28;20193;-77
2022/06/14 07:36:20;;;;;;;4.97;4.05;;;;;;;29.50;54.83;94819.75;5091241;28;20201;-77
2022/06/14 07:38:58;;;;;;;5.13;3.78;;;;;;;29.56;54.37;94810.06;5091098;28;20204;-76
2022/06/14 07:41:31;;;;;;;4.45;4.05;;;;;;;29.62;54.22;94814.34;5088519;28;20196;-77
2022/06/14 07:44:05;;;;;;;7.53;4.07;;;;;;;29.72;54.36;94819.69;5090056;28;20173;-77
2022/06/14 07:46:41;;;;;;;4.40;3.92;;;;;;;29.81;54.37;94816.56;5088016;28;20200;-76
2022/06/14 07:49:14;;;;;;;5.30;3.45;;;;;;;29.93;53.85;94825.88;5088670;28;20217;-79
2022/06/14 07:51:46;;;;;;;5.13;4.03;;;;;;;30.00;53.70;94812.44;5090651;28;20197;-79
2022/06/14 07:54:21;;;;;;;3.97;3.67;;;;;;;30.16;53.78;94811.50;5087086;28;20201;-77
2022/06/14 07:56:54;;;;;;;5.43;3.28;;;;;;;30.37;53.67;94827.41;5090269;28;20667;-77
2022/06/14 07:59:25;;;;;;;4.90;4.30;;;;;;;30.56;53.37;94822.44;5088303;28;20178;-77
2022/06/14 08:01:57;;;;;;;5.32;3.60;;;;;;;30.76;52.87;94822.53;5089551;28;20189;-77
2022/06/14 08:04:34;;;;;;;7.22;3.75;;;;;;;30.93;52.27;94815.19;5090814;28;20208;-77
2022/06/14 08:07:04;;;;;;;3.90;3.60;;;;;;;31.18;51.71;94821.56;5086864;28;20663;-78
2022/06/14 08:09:37;;;;;;;5.15;3.50;;;;;;;31.34;51.45;94819.72;5090234;28;20222;-79
2022/06/14 08:12:11;;;;;;;4.28;3.88;;;;;;;31.58;51.41;94818.13;5090096;28;20189;-77
2022/06/14 08:14:46;;;;;;;4.07;3.40;;;;;;;31.86;51.07;94826.56;5090593;28;20257;-76
2022/06/14 08:17:18;;;;;;;3.88;3.58;;;;;;;32.13;50.46;94818.31;5088344;28;20788;-76
2022/06/14 08:19:52;;;;;;;3.88;3.50;;;;;;;32.37;49.61;94813.16;5088956;28;20580;-75
2022/06/14 08:22:28;;;;;;;3.72;3.35;;;;;;;32.59;48.83;94818.91;5089565;28;20766;-76
2022/06/14 08:25:02;;;;;;;3.50;3.30;;;;;;;32.86;48.27;94815.06;5088266;28;20197;-76
2022/06/14 08:27:35;;;;;;;3.70;3.40;;;;;;;33.12;47.92;94807.78;5089417;28;20193;-76
2022/06/14 08:30:06;;;;;;;8.40;3.30;;;;;;;33.43;47.17;94805.66;5089932;28;20225;-75
2022/06/14 08:32:41;;;;;;;2.95;2.67;;;;;;;33.73;46.38;94807.28;5086696;28;20205;-77
2022/06/14 08:35:16;;;;;;;3.78;3.22;;;;;;;34.01;45.87;94800.38;5087985;28;20189;-77
2022/06/14 08:37:48;;;;;;;3.15;2.95;;;;;;;34.18;45.29;94803.34;5089659;28;20196;-76
2022/06/14 08:40:34;;;;;;;3.97;3.47;;;;;;;34.28;44.83;94804.28;5089520;28;20193;-76
2022/06/14 08:43:04;;;;;;;6.07;3.67;;;;;;;34.32;44.50;94806.09;5088300;28;20184;-77
2022/06/14 08:45:39;;;;;;;4.60;3.38;;;;;;;34.36;44.37;94801.00;5084609;28;20193;-78
2022/06/14 08:48:17;;;;;;;4.72;3.20;;;;;;;34.40;43.91;94800.16;5089991;28;20177;-78
2022/06/14 08:51:06;;;;;;;4.45;3.28;;;;;;;34.42;44.10;94799.88;5088900;28;20644;-75
2022/06/14 08:54:20;;;;;;;3.85;3.55;;;;;;;34.39;43.93;94806.56;5087465;28;20626;-73
2022/06/14 08:57:01;;;;;;;3.63;3.35;;;;;;;34.34;43.94;94800.53;5086964;28;20197;-77
2022/06/14 09:00:06;;;;;;;6.68;2.78;;;;;;;34.31;43.57;94793.13;5088882;28;20189;-77
2022/06/14 09:03:12;;;;;;;3.35;3.10;;;;;;;34.36;43.79;94801.81;5086244;28;20200;-76
2022/06/14 09:06:02;;;;;;;3.40;3.10;;;;;;;34.38;43.68;94802.31;5087264;28;20182;-76
2022/06/14 09:09:02;;;;;;;8.68;3.33;;;;;;;34.40;43.83;94792.19;5088359;28;20224;-77
2022/06/14 09:11:58;;;;;;;4.22;3.45;;;;;;;34.46;43.56;94795.59;5087255;28;20190;-79
2022/06/14 09:14:48;;;;;;;3.85;3.28;;;;;;;34.48;43.54;94798.78;5088039;28;20193;-75
2022/06/14 09:17:44;;;;;;;3.35;2.85;;;;;;;34.50;43.24;94793.97;5086057;28;20343;-79
2022/06/14 09:20:26;;;;;;;3.60;3.30;;;;;;;34.55;43.19;94796.56;5086867;28;20668;-79
2022/06/14 09:23:10;;;;;;;4.22;3.22;;;;;;;34.62;43.22;94802.28;5089134;28;20205;-74
2022/06/14 09:25:59;;;;;;;4.55;3.05;;;;;;;34.66;42.86;94797.19;5088440;28;20196;-75
2022/06/14 09:29:18;;;;;;;3.40;3.10;;;;;;;34.63;42.61;94798.59;5089051;28;20282;-76
2022/06/14 09:32:04;;;;;;;5.05;3.30;;;;;;;34.63;42.77;94795.94;5088961;28;20259;-76
2022/06/14 09:35:02;;;;;;;3.67;3.33;;;;;;;34.57;42.94;94793.59;5089138;28;20747;-75
2022/06/14 09:38:00;;;;;;;5.00;3.08;;;;;;;34.52;42.91;94786.50;5007112;28;20239;-75
2022/06/14 09:40:40;;;;;;;3.95;3.10;;;;;;;34.48;42.88;94784.69;5006733;28;20677;-74
2022/06/14 09:43:39;;;;;;;4.20;2.90;;;;;;;34.45;42.58;94794.78;5006499;28;20188;-73
2022/06/14 09:46:53;;;;;;;3.97;3.55;;;;;;;34.44;42.60;94803.03;5006721;28;20597;-76
2022/06/14 09:49:55;;;;;;;3.65;3.25;;;;;;;34.40;43.09;94799.38;4947159;29;20225;-75
2022/06/14 09:52:52;;;;;;;3.65;3.33;;;;;;;34.36;43.42;94799.16;4952446;29;20811;-74
2022/06/14 09:55:34;;;;;;;4.60;3.10;;;;;;;34.37;43.77;94797.28;4947440;29;20210;-74
2022/06/14 09:58:28;;;;;;;3.75;3.45;;;;;;;34.32;44.03;94798.13;4952341;29;20198;-75
2022/06/14 10:01:06;;;;;;;4.50;3.50;;;;;;;34.31;43.72;94791.25;4952083;29;20229;-75
2022/06/14 10:03:58;;;;;;;3.50;3.20;;;;;;;34.28;43.80;94801.63;4952390;29;20209;-75
2022/06/14 10:07:04;;;;;;;3.65;3.33;;;;;;;34.22;43.23;94798.25;4952520;29;20198;-74
2022/06/14 10:09:55;;;;;;;4.25;3.78;;;;;;;34.11;41.99;94813.53;4895078;29;20707;-74
2022/06/14 10:12:44;;;;;;;5.63;2.90;;;;;;;33.91;41.49;94811.84;4894598;29;20573;-75
2022/06/14 10:15:18;;;;;;;3.53;3.20;;;;;;;33.64;42.36;94807.09;4960147;28;20209;-74
2022/06/14 10:18:03;;;;;;;3.90;3.13;;;;;;;33.39;42.01;94821.34;4971115;28;20228;-74
2022/06/14 10:20:41;;;;;;;6.72;3.85;;;;;;;33.12;42.81;94824.47;5012366;28;20199;-75
2022/06/14 10:23:25;;;;;;;5.60;3.88;;;;;;;32.86;42.81;94817.69;5028239;28;20199;-75
2022/06/14 10:29:09;;;;;;;7.15;3.35;;;;;;;32.32;42.26;94824.56;5028944;28;20210;-75
2022/06/14 10:31:50;;;;;;;3.65;3.30;;;;;;;32.06;42.54;94815.94;5029950;28;20206;-74
2022/06/14 10:34:23;;;;;;;4.35;3.95;;;;;;;31.83;42.58;94811.22;5027790;28;20195;-75
2022/06/14 10:37:09;;;;;;;7.22;3.55;;;;;;;31.61;42.33;94808.88;5029798;28;20278;-76
2022/06/14 10:40:09;;;;;;;3.65;3.35;;;;;;;31.38;42.35;94804.91;5029781;28;20211;-76
2022/06/14 10:42:44;;;;;;;3.42;2.88;;;;;;;31.15;42.70;94806.22;4970675;28;20221;-74
2022/06/14 10:45:17;;;;;;;3.92;3.28;;;;;;;30.95;42.38;94804.34;4976290;28;20197;-75
2022/06/14 10:48:15;;;;;;;3.08;2.80;;;;;;;30.79;42.16;94810.69;5029683;28;20206;-74
2022/06/14 10:50:57;;;;;;;3.08;2.75;;;;;;;30.57;42.20;94808.19;5025377;28;20231;-74
2022/06/14 10:53:36;;;;;;;4.82;3.95;;;;;;;30.40;42.31;94811.88;5028635;28;20199;-75
2022/06/14 10:56:25;;;;;;;3.20;2.90;;;;;;;30.20;41.83;94806.50;5029458;28;20234;-74
2022/06/14 10:59:11;;;;;;;5.10;3.40;;;;;;;30.03;41.84;94805.88;5026063;28;20207;-78
2022/06/14 11:01:51;;;;;;;5.93;3.25;;;;;;;29.91;42.44;94803.41;5026807;28;20195;-76
2022/06/14 11:04:29;;;;;;;4.70;2.85;;;;;;;29.78;43.16;94807.31;5027950;28;20278;-75
2022/06/14 11:07:25;;;;;;;5.78;2.92;;;;;;;29.68;43.20;94813.31;5029475;28;20203;-77
2022/06/14 11:10:19;;;;;;;7.25;3.22;;;;;;;29.56;43.87;94815.34;5023142;28;20246;-79
2022/06/14 11:12:55;;;;;;;5.10;2.92;;;;;;;29.44;44.13;94819.97;5024723;28;20203;-76
2022/06/14 11:15:31;;;;;;;3.30;3.00;;;;;;;29.33;44.55;94815.69;5027562;28;20195;-75
2022/06/14 11:18:29;;;;;;;4.15;3.30;;;;;;;29.23;44.92;94811.09;5025646;28;20227;-81
2022/06/14 11:21:07;;;;;;;3.33;2.95;;;;;;;29.14;45.10;94816.03;5009516;28;20208;-82
2022/06/14 11:23:42;;;;;;;5.40;3.00;;;;;;;29.08;44.91;94814.41;5009525;28;20552;-75
2022/06/14 11:26:17;;;;;;;6.38;3.20;;;;;;;29.02;44.50;94804.91;5006853;28;20669;-78
2022/06/14 11:28:51;;;;;;;2.60;2.40;;;;;;;28.92;44.39;94795.00;5009368;28;21040;-78
2022/06/14 11:31:25;;;;;;;2.53;2.33;;;;;;;28.94;44.07;94805.31;5008960;28;20196;-73
2022/06/14 11:34:08;;;;;;;2.90;2.70;;;;;;;28.92;44.72;94800.28;5008959;28;20183;-75
2022/06/14 11:36:45;;;;;;;3.42;2.50;;;;;;;28.97;44.71;94804.81;5009171;28;20199;-77
2022/06/14 11:39:31;;;;;;;3.17;2.78;;;;;;;29.04;45.10;94796.72;5006777;28;20220;-77
2022/06/14 11:42:02;;;;;;;3.15;2.83;;;;;;;29.13;45.68;94795.22;5008828;28;20188;-76
2022/06/14 11:44:49;;;;;;;3.17;2.78;;;;;;;29.20;45.67;94783.44;5008918;28;20287;-76
2022/06/14 11:47:24;;;;;;;3.60;2.60;;;;;;;29.27;45.47;94782.41;5008674;28;20189;-79
2022/06/14 11:50:01;;;;;;;3.00;2.50;;;;;;;29.31;45.39;94775.59;5009116;28;20242;-77
2022/06/14 11:52:42;;;;;;;2.58;2.38;;;;;;;29.40;45.41;94777.50;5008810;28;20195;-78
2022/06/14 11:55:25;;;;;;;2.90;2.70;;;;;;;29.52;45.74;94772.06;5008911;28;20204;-77
2022/06/14 11:58:03;;;;;;;4.78;2.90;;;;;;;29.62;46.09;94756.34;5047800;28;20200;-75
2022/06/14 12:00:46;;;;;;;2.92;2.63;;;;;;;29.73;45.50;94757.97;5088389;28;20196;-75
2022/06/14 12:03:29;;;;;;;2.88;2.53;;;;;;;29.86;45.60;94762.00;5091052;28;20185;-79
2022/06/14 12:06:07;;;;;;;3.50;2.53;;;;;;;29.97;45.87;94754.94;5090596;28;20204;-76
2022/06/14 12:09:02;;;;;;;2.60;2.40;;;;;;;30.08;45.44;94755.75;5089661;28;20208;-75
2022/06/14 12:11:34;;;;;;;4.55;2.75;;;;;;;30.18;45.84;94750.53;5087055;28;20202;-79
2022/06/14 12:14:31;;;;;;;2.92;2.63;;;;;;;30.27;45.90;94749.00;5090228;28;20190;-75
2022/06/14 12:17:09;;;;;;;2.83;2.55;;;;;;;30.40;45.17;94748.53;5089245;28;20290;-74
2022/06/14 12:19:36;;;;;;;3.45;2.45;;;;;;;30.49;45.46;94751.44;5090402;28;20190;-74
2022/06/14 12:27:53;;;;;;;2.67;2.47;;;;;;;30.57;44.90;94756.22;5088884;28;20188;-76